PWSweather.com
Personal Weather Stations
Station Observations

Enon Chester, VA 23836

Lat: 37.3609267, Lon: -77.31545840000001

Elevation: 89

Station Type: Acurite

http://www.wunderground.com/personal-weather-station/dashboard?ID=KVACHEST67

Latest ConditionsUpdated 12:39:17 AM EDT Saturday, Aug 18, 2018
Currently Today's Max Today's Min Today's Average
Temperature 79.5°F26.4°C 79.9°F26.6°C 79.5°F26.4°C 79.7°F26.5°C
Dew Point 76.0°F24.4°C 76.4°F24.7°C 76.0°F24.4°C 76.2°F24.6°C
Winds 2.7 mph W4.3 kmh W 5.3 mph -8.5 kmh - - 2.0 mph 3.2 kmh
Wind Gusts 4.2 mph6.8 kmh 5.8 mph9.3 kmh - -
Humidity 89% 89% 89% 89%
Pressure 29.85 in1010.8 mb 29.85 in1010.8 mb 29.85 in1010.8 mb -
Hour Temp Dew Point Humidity Winds Wind Gusts Pressure Precip Precip Rate Daily Precip Total
12:39 AM 79.5°F26.4°C 76.0°F24.4°C 89% 2.7 mph W4.3 kmh W 4.2 mph6.8 kmh 29.85 in1010.8 mb 0.00 in0.0 mm 0.00 in0.0 mm 0.00 in0.0 mm
12:38 AM 79.7°F26.5°C 76.2°F24.6°C 89% 1.7 mph N2.7 kmh N 5.3 mph8.5 kmh 29.85 in1010.8 mb 0.00 in0.0 mm 0.00 in0.0 mm 0.00 in0.0 mm
12:37 AM 79.7°F26.5°C 76.2°F24.6°C 89% 2.7 mph NW4.3 kmh NW 5.3 mph8.5 kmh 29.85 in1010.8 mb 0.00 in0.0 mm 0.00 in0.0 mm 0.00 in0.0 mm
12:36 AM 79.7°F26.5°C 76.2°F24.6°C 89% 1.7 mph W2.7 kmh W 5.3 mph8.5 kmh 29.85 in1010.8 mb 0.00 in0.0 mm 0.00 in0.0 mm 0.00 in0.0 mm
12:35 AM 79.7°F26.5°C 76.2°F24.6°C 89% 4.2 mph W6.8 kmh W 5.3 mph8.5 kmh 29.85 in1010.8 mb 0.00 in0.0 mm 0.00 in0.0 mm 0.00 in0.0 mm
12:34 AM 79.7°F26.5°C 76.2°F24.6°C 89% 1.1 mph SSW1.8 kmh SSW 5.3 mph8.5 kmh 29.85 in1010.8 mb 0.00 in0.0 mm 0.00 in0.0 mm 0.00 in0.0 mm
12:33 AM 79.7°F26.5°C 76.2°F24.6°C 89% 3.2 mph NW5.1 kmh NW 5.3 mph8.5 kmh 29.85 in1010.8 mb 0.00 in0.0 mm 0.00 in0.0 mm 0.00 in0.0 mm
12:32 AM 79.7°F26.5°C 76.2°F24.6°C 89% 4.2 mph W6.8 kmh W 5.3 mph8.5 kmh 29.85 in1010.8 mb 0.00 in0.0 mm 0.00 in0.0 mm 0.00 in0.0 mm
12:31 AM 79.7°F26.5°C 76.2°F24.6°C 89% Calm Calm 5.3 mph8.5 kmh 29.85 in1010.8 mb 0.00 in0.0 mm 0.00 in0.0 mm 0.00 in0.0 mm
12:30 AM 79.7°F26.5°C 76.2°F24.6°C 89% 2.2 mph ESE3.5 kmh ESE 5.3 mph8.5 kmh 29.85 in1010.8 mb 0.00 in0.0 mm 0.00 in0.0 mm 0.00 in0.0 mm
12:29 AM 79.7°F26.5°C 76.2°F24.6°C 89% 4.7 mph W7.6 kmh W 5.3 mph8.5 kmh 29.85 in1010.8 mb 0.00 in0.0 mm 0.00 in0.0 mm 0.00 in0.0 mm
12:28 AM 79.5°F26.4°C 76.0°F24.4°C 89% 5.3 mph ESE8.5 kmh ESE 5.3 mph8.5 kmh 29.85 in1010.8 mb 0.00 in0.0 mm 0.00 in0.0 mm 0.00 in0.0 mm
12:27 AM 79.5°F26.4°C 76.0°F24.4°C 89% 1.7 mph ESE2.7 kmh ESE 3.2 mph5.1 kmh 29.85 in1010.8 mb 0.00 in0.0 mm 0.00 in0.0 mm 0.00 in0.0 mm
12:26 AM 79.5°F26.4°C 76.0°F24.4°C 89% 2.2 mph E3.5 kmh E 3.2 mph5.1 kmh 29.85 in1010.8 mb 0.00 in0.0 mm 0.00 in0.0 mm 0.00 in0.0 mm
12:25 AM 79.5°F26.4°C 76.0°F24.4°C 89% 3.2 mph WNW5.1 kmh WNW 3.2 mph5.1 kmh 29.85 in1010.8 mb 0.00 in0.0 mm 0.00 in0.0 mm 0.00 in0.0 mm
12:24 AM 79.5°F26.4°C 76.0°F24.4°C 89% 2.7 mph NNE4.3 kmh NNE 3.2 mph5.1 kmh 29.85 in1010.8 mb 0.00 in0.0 mm 0.00 in0.0 mm 0.00 in0.0 mm
12:23 AM 79.5°F26.4°C 76.0°F24.4°C 89% 1.7 mph W2.7 kmh W 3.2 mph5.1 kmh 29.85 in1010.8 mb 0.00 in0.0 mm 0.00 in0.0 mm 0.00 in0.0 mm
12:22 AM 79.7°F26.5°C 76.2°F24.6°C 89% Calm Calm 3.2 mph5.1 kmh 29.85 in1010.8 mb 0.00 in0.0 mm 0.00 in0.0 mm 0.00 in0.0 mm
12:21 AM 79.7°F26.5°C 76.2°F24.6°C 89% Calm Calm 3.2 mph5.1 kmh 29.85 in1010.8 mb 0.00 in0.0 mm 0.00 in0.0 mm 0.00 in0.0 mm
12:20 AM 79.7°F26.5°C 76.2°F24.6°C 89% 1.1 mph S1.8 kmh S 3.2 mph5.1 kmh 29.85 in1010.8 mb 0.00 in0.0 mm 0.00 in0.0 mm 0.00 in0.0 mm
12:19 AM 79.7°F26.5°C 76.2°F24.6°C 89% 3.2 mph W5.1 kmh W 3.2 mph5.1 kmh 29.85 in1010.8 mb 0.00 in0.0 mm 0.00 in0.0 mm 0.00 in0.0 mm
12:18 AM 79.7°F26.5°C 76.2°F24.6°C 89% 1.1 mph W1.8 kmh W 2.7 mph4.3 kmh 29.85 in1010.8 mb 0.00 in0.0 mm 0.00 in0.0 mm 0.00 in0.0 mm
12:17 AM 79.7°F26.5°C 76.2°F24.6°C 89% 2.7 mph W4.3 kmh W 2.7 mph4.3 kmh 29.85 in1010.8 mb 0.00 in0.0 mm 0.00 in0.0 mm 0.00 in0.0 mm
12:16 AM 79.7°F26.5°C 76.2°F24.6°C 89% 1.1 mph SW1.8 kmh SW 5.8 mph9.3 kmh 29.85 in1010.8 mb 0.00 in0.0 mm 0.00 in0.0 mm 0.00 in0.0 mm
12:15 AM 79.7°F26.5°C 76.2°F24.6°C 89% 2.2 mph W3.5 kmh W 5.8 mph9.3 kmh 29.85 in1010.8 mb 0.00 in0.0 mm 0.00 in0.0 mm 0.00 in0.0 mm
12:12 AM 79.7°F26.5°C 76.2°F24.6°C 89% 2.2 mph W3.5 kmh W 5.8 mph9.3 kmh 29.85 in1010.8 mb 0.00 in0.0 mm 0.00 in0.0 mm 0.00 in0.0 mm
12:11 AM 79.7°F26.5°C 76.2°F24.6°C 89% 2.2 mph W3.5 kmh W 5.8 mph9.3 kmh 29.85 in1010.8 mb 0.00 in0.0 mm 0.00 in0.0 mm 0.00 in0.0 mm
12:10 AM 79.7°F26.5°C 76.2°F24.6°C 89% 2.2 mph S3.5 kmh S 5.8 mph9.3 kmh 29.85 in1010.8 mb 0.00 in0.0 mm 0.00 in0.0 mm 0.00 in0.0 mm
12:09 AM 79.7°F26.5°C 76.2°F24.6°C 89% 1.7 mph SW2.7 kmh SW 5.8 mph9.3 kmh 29.85 in1010.8 mb 0.00 in0.0 mm 0.00 in0.0 mm 0.00 in0.0 mm
12:08 AM 79.7°F26.5°C 76.2°F24.6°C 89% 1.1 mph NNE1.8 kmh NNE 5.8 mph9.3 kmh 29.85 in1010.8 mb 0.00 in0.0 mm 0.00 in0.0 mm 0.00 in0.0 mm
12:07 AM 79.7°F26.5°C 76.2°F24.6°C 89% 2.2 mph SW3.5 kmh SW 5.8 mph9.3 kmh 29.85 in1010.8 mb 0.00 in0.0 mm 0.00 in0.0 mm 0.00 in0.0 mm
12:06 AM 79.7°F26.5°C 76.2°F24.6°C 89% 1.7 mph SSE2.7 kmh SSE 2.2 mph3.5 kmh 29.85 in1010.8 mb 0.00 in0.0 mm 0.00 in0.0 mm 0.00 in0.0 mm
12:05 AM 79.9°F26.6°C 76.4°F24.7°C 89% 1.7 mph NW2.7 kmh NW 2.7 mph4.3 kmh 29.85 in1010.8 mb 0.00 in0.0 mm 0.00 in0.0 mm 0.00 in0.0 mm
12:04 AM 79.9°F26.6°C 76.4°F24.7°C 89% Calm Calm 3.2 mph5.1 kmh 29.85 in1010.8 mb 0.00 in0.0 mm 0.00 in0.0 mm 0.00 in0.0 mm
12:03 AM 79.9°F26.6°C 76.4°F24.7°C 89% 1.1 mph S1.8 kmh S 3.2 mph5.1 kmh 29.85 in1010.8 mb 0.00 in0.0 mm 0.00 in0.0 mm 0.00 in0.0 mm
12:02 AM 79.9°F26.6°C 76.4°F24.7°C 89% 1.7 mph NW2.7 kmh NW 3.2 mph5.1 kmh 29.85 in1010.8 mb 0.00 in0.0 mm 0.00 in0.0 mm 0.00 in0.0 mm
12:01 AM 79.9°F26.6°C 76.4°F24.7°C 89% 1.1 mph ESE1.8 kmh ESE 3.2 mph5.1 kmh 29.85 in1010.8 mb 0.00 in0.0 mm 0.00 in0.0 mm 0.00 in0.0 mm
12:00 AM 79.9°F26.6°C 76.4°F24.7°C 89% 1.7 mph WNW2.7 kmh WNW 3.2 mph5.1 kmh 29.85 in1010.8 mb 0.00 in0.0 mm 0.00 in0.0 mm 0.00 in0.0 mm